Time;durP1;ratioP1;P1;durP2;ratioP2;P2;SDS_P1;SDS_P2;PMS_P1;PMS_P2;Temp;Humidity;BMP_temperature;BMP_pressure;BME280_temperature;BME280_humidity;BME280_pressure;Samples;Min_cycle;Max_cycle;Signal;HPM_P1;HPM_P2
2023/12/15 00:00:14;;;;;;;0.45;0.45;;;;;;;;;;5015142;28;20057;-81
2023/12/15 00:02:41;;;;;;;0.40;0.40;;;;;;;;;;5020775;28;20518;-81
2023/12/15 00:05:09;;;;;;;0.65;0.60;;;;;;;;;;5014990;28;20041;-81
2023/12/15 00:07:37;;;;;;;0.28;0.28;;;;;;;;;;5015593;28;20111;-81
2023/12/15 00:10:07;;;;;;;0.77;0.77;;;;;;;;;;5017012;28;20578;-81
2023/12/15 00:12:35;;;;;;;0.30;0.20;;;;;;;;;;5019915;28;20053;-81
2023/12/15 00:15:03;;;;;;;0.22;0.22;;;;;;;;;;5022095;28;20053;-81
2023/12/15 00:17:30;;;;;;;0.32;0.32;;;;;;;;;;5026713;28;20367;-81
2023/12/15 00:19:58;;;;;;;0.10;0.10;;;;;;;;;;5024906;28;20072;-81
2023/12/15 00:22:25;;;;;;;0.10;0.10;;;;;;;;;;5021688;28;20053;-81
2023/12/15 00:24:53;;;;;;;0.30;0.30;;;;;;;;;;5024695;28;20045;-81
2023/12/15 00:27:20;;;;;;;1.38;0.73;;;;;;;;;;5022812;28;20049;-81
2023/12/15 00:29:48;;;;;;;0.20;0.20;;;;;;;;;;5024328;28;20104;-81
2023/12/15 00:32:15;;;;;;;0.10;0.10;;;;;;;;;;5027466;28;20136;-81
2023/12/15 00:34:43;;;;;;;0.13;0.13;;;;;;;;;;5032903;28;20046;-81
2023/12/15 00:37:10;;;;;;;0.20;0.20;;;;;;;;;;5016187;28;20053;-81
2023/12/15 00:39:38;;;;;;;0.20;0.20;;;;;;;;;;5018768;28;20038;-81
2023/12/15 00:42:05;;;;;;;0.30;0.30;;;;;;;;;;5027600;28;20073;-81
2023/12/15 00:44:33;;;;;;;0.65;0.65;;;;;;;;;;5027736;28;20136;-81
2023/12/15 00:47:01;;;;;;;0.73;0.73;;;;;;;;;;5025681;28;20076;-81
2023/12/15 00:49:29;;;;;;;0.28;0.22;;;;;;;;;;5025043;28;20057;-81
2023/12/15 00:51:56;;;;;;;0.10;0.10;;;;;;;;;;5024429;28;20042;-81
2023/12/15 00:54:24;;;;;;;0.93;0.93;;;;;;;;;;5025285;28;20132;-81
2023/12/15 00:56:51;;;;;;;0.10;0.10;;;;;;;;;;5025906;28;20384;-81
2023/12/15 00:59:18;;;;;;;0.40;0.40;;;;;;;;;;5023234;28;20072;-79
2023/12/15 01:01:46;;;;;;;0.20;0.20;;;;;;;;;;5023076;28;20053;-80
2023/12/15 01:04:13;;;;;;;0.20;0.20;;;;;;;;;;5029310;28;20064;-81
2023/12/15 01:06:41;;;;;;;0.28;0.28;;;;;;;;;;5029177;28;20521;-80
2023/12/15 01:09:08;;;;;;;0.40;0.40;;;;;;;;;;5034142;28;20053;-81
2023/12/15 01:11:36;;;;;;;0.38;0.38;;;;;;;;;;5033374;28;20049;-81
2023/12/15 01:14:03;;;;;;;0.15;0.15;;;;;;;;;;5028912;28;20055;-80
2023/12/15 01:16:31;;;;;;;0.50;0.50;;;;;;;;;;5013139;28;20049;-80
2023/12/15 01:18:58;;;;;;;0.10;0.10;;;;;;;;;;5020882;28;20133;-81
2023/12/15 01:21:26;;;;;;;0.20;0.20;;;;;;;;;;5022783;28;20364;-81
2023/12/15 01:23:54;;;;;;;0.45;0.45;;;;;;;;;;5018877;28;20037;-81
2023/12/15 01:26:21;;;;;;;0.10;0.10;;;;;;;;;;5022773;28;20677;-81
2023/12/15 01:28:49;;;;;;;0.52;0.50;;;;;;;;;;5021435;28;20049;-81
2023/12/15 01:31:16;;;;;;;0.10;0.10;;;;;;;;;;5021792;28;20037;-80
2023/12/15 01:33:44;;;;;;;0.00;0.00;;;;;;;;;;5025358;28;20050;-81
2023/12/15 01:36:11;;;;;;;0.10;0.10;;;;;;;;;;5029384;28;20495;-81
2023/12/15 01:38:39;;;;;;;0.20;0.20;;;;;;;;;;5029200;28;20029;-80
2023/12/15 01:41:06;;;;;;;0.00;0.00;;;;;;;;;;5021592;28;20041;-80
2023/12/15 01:43:34;;;;;;;0.10;0.10;;;;;;;;;;5016453;28;20522;-80
2023/12/15 01:46:01;;;;;;;0.43;0.40;;;;;;;;;;5015990;28;20050;-81
2023/12/15 01:48:40;;;;;;;0.30;0.30;;;;;;;;;;5012419;28;20053;-81
2023/12/15 01:51:08;;;;;;;0.10;0.10;;;;;;;;;;5026545;28;20045;-81
2023/12/15 01:53:36;;;;;;;0.10;0.10;;;;;;;;;;5024777;28;20041;-81
2023/12/15 01:56:04;;;;;;;0.32;0.32;;;;;;;;;;5030803;28;20482;-81
2023/12/15 01:58:32;;;;;;;0.20;0.20;;;;;;;;;;5022379;28;20312;-81
2023/12/15 02:00:59;;;;;;;0.13;0.13;;;;;;;;;;5022940;28;20069;-81
2023/12/15 02:03:27;;;;;;;0.40;0.40;;;;;;;;;;5024744;28;20034;-80
2023/12/15 02:05:54;;;;;;;0.45;0.45;;;;;;;;;;5025109;28;20037;-81
2023/12/15 02:08:22;;;;;;;0.63;0.63;;;;;;;;;;5025009;28;20128;-81
2023/12/15 02:10:49;;;;;;;0.30;0.30;;;;;;;;;;5028675;28;20060;-80
2023/12/15 02:13:17;;;;;;;0.10;0.10;;;;;;;;;;5025057;28;20046;-80
2023/12/15 02:15:44;;;;;;;0.10;0.10;;;;;;;;;;5019432;28;20080;-80
2023/12/15 02:18:12;;;;;;;0.20;0.20;;;;;;;;;;5017405;28;20096;-81
2023/12/15 02:20:39;;;;;;;0.47;0.47;;;;;;;;;;5026590;28;20059;-80
2023/12/15 02:23:07;;;;;;;0.10;0.10;;;;;;;;;;5026982;28;20499;-80
2023/12/15 02:25:34;;;;;;;1.08;0.98;;;;;;;;;;5023955;28;20057;-80
2023/12/15 02:28:02;;;;;;;0.47;0.47;;;;;;;;;;5021593;28;20065;-80
2023/12/15 02:30:29;;;;;;;0.15;0.15;;;;;;;;;;5025986;28;20558;-80
2023/12/15 02:32:56;;;;;;;0.80;0.80;;;;;;;;;;5025400;28;20116;-80
2023/12/15 02:35:24;;;;;;;0.10;0.10;;;;;;;;;;5028485;28;20055;-80
2023/12/15 02:37:52;;;;;;;0.10;0.10;;;;;;;;;;5031756;28;20411;-81
2023/12/15 02:40:19;;;;;;;0.32;0.32;;;;;;;;;;5024844;28;20037;-80
2023/12/15 02:42:47;;;;;;;0.10;0.10;;;;;;;;;;5027466;28;20372;-80
2023/12/15 02:45:14;;;;;;;0.35;0.35;;;;;;;;;;5020861;28;20133;-80
2023/12/15 02:47:41;;;;;;;0.20;0.20;;;;;;;;;;5026614;28;20046;-80
2023/12/15 02:50:11;;;;;;;0.10;0.10;;;;;;;;;;5012755;28;20061;-80
2023/12/15 02:52:45;;;;;;;0.10;0.10;;;;;;;;;;5018184;28;20067;-80
2023/12/15 02:55:13;;;;;;;0.30;0.30;;;;;;;;;;5024466;28;20135;-80
2023/12/15 02:57:40;;;;;;;0.28;0.28;;;;;;;;;;5028235;28;20127;-80
2023/12/15 03:00:08;;;;;;;0.20;0.20;;;;;;;;;;5014309;28;20415;-80
2023/12/15 03:02:35;;;;;;;0.10;0.10;;;;;;;;;;5018523;28;20183;-80
2023/12/15 03:05:03;;;;;;;0.20;0.20;;;;;;;;;;5032427;28;20060;-80
2023/12/15 03:07:30;;;;;;;0.20;0.20;;;;;;;;;;5025918;28;20045;-79
2023/12/15 03:09:58;;;;;;;0.47;0.47;;;;;;;;;;5020716;28;20042;-81
2023/12/15 03:12:26;;;;;;;0.10;0.10;;;;;;;;;;5016586;28;20138;-81
2023/12/15 03:14:56;;;;;;;0.32;0.32;;;;;;;;;;5020771;28;20309;-80
2023/12/15 03:17:23;;;;;;;0.00;0.00;;;;;;;;;;5023923;28;20049;-80
2023/12/15 03:19:51;;;;;;;0.10;0.10;;;;;;;;;;5018177;28;20549;-81
2023/12/15 03:22:18;;;;;;;0.17;0.17;;;;;;;;;;5026835;28;20496;-80
2023/12/15 03:24:46;;;;;;;0.50;0.50;;;;;;;;;;5026258;28;20056;-81
2023/12/15 03:27:13;;;;;;;0.15;0.15;;;;;;;;;;5038908;28;20080;-81
2023/12/15 03:29:40;;;;;;;0.30;0.30;;;;;;;;;;5027252;28;20045;-80
2023/12/15 03:32:08;;;;;;;0.10;0.10;;;;;;;;;;5020886;28;20060;-80
2023/12/15 03:34:35;;;;;;;0.47;0.47;;;;;;;;;;5027099;28;20045;-80
2023/12/15 03:37:03;;;;;;;0.40;0.40;;;;;;;;;;5028722;28;20046;-80
2023/12/15 03:39:30;;;;;;;0.10;0.10;;;;;;;;;;5022186;28;20053;-80
2023/12/15 03:41:57;;;;;;;1.45;1.15;;;;;;;;;;5026535;28;20037;-80
2023/12/15 03:44:25;;;;;;;0.05;0.05;;;;;;;;;;5013474;28;20069;-80
2023/12/15 03:46:53;;;;;;;0.10;0.10;;;;;;;;;;5018497;28;20033;-81
2023/12/15 03:49:20;;;;;;;0.10;0.10;;;;;;;;;;5014982;28;20718;-80
2023/12/15 03:51:47;;;;;;;1.35;0.98;;;;;;;;;;5037420;28;20052;-81
2023/12/15 03:54:15;;;;;;;0.43;0.43;;;;;;;;;;5018249;28;20132;-81
2023/12/15 03:56:43;;;;;;;0.28;0.28;;;;;;;;;;5017529;28;20264;-81
2023/12/15 03:59:10;;;;;;;0.57;0.57;;;;;;;;;;5018265;28;20128;-80
2023/12/15 04:01:38;;;;;;;0.32;0.32;;;;;;;;;;5020488;28;20569;-79
2023/12/15 04:04:05;;;;;;;1.55;0.93;;;;;;;;;;5021549;28;20455;-80
2023/12/15 04:06:32;;;;;;;1.08;0.98;;;;;;;;;;5027893;28;20037;-81
2023/12/15 04:09:00;;;;;;;1.75;1.65;;;;;;;;;;5020955;28;20133;-81
2023/12/15 04:11:27;;;;;;;0.95;0.95;;;;;;;;;;5022828;28;20054;-80
2023/12/15 04:13:54;;;;;;;1.00;1.00;;;;;;;;;;5010935;28;20135;-81
2023/12/15 04:16:22;;;;;;;0.10;0.10;;;;;;;;;;5021777;28;20055;-81
2023/12/15 04:18:49;;;;;;;0.52;0.52;;;;;;;;;;5012419;28;20498;-81
2023/12/15 04:21:17;;;;;;;0.10;0.10;;;;;;;;;;5015946;28;20065;-81
2023/12/15 04:23:44;;;;;;;1.13;1.13;;;;;;;;;;5011477;28;20050;-81
2023/12/15 04:26:12;;;;;;;0.43;0.43;;;;;;;;;;5019640;28;20126;-81
2023/12/15 04:28:39;;;;;;;1.20;0.38;;;;;;;;;;5013302;28;20499;-81
2023/12/15 04:31:07;;;;;;;1.02;0.98;;;;;;;;;;5007983;28;20033;-82
2023/12/15 04:33:34;;;;;;;0.20;0.20;;;;;;;;;;5018245;28;20091;-81
2023/12/15 04:36:02;;;;;;;0.43;0.30;;;;;;;;;;5017964;28;20120;-81
2023/12/15 04:38:29;;;;;;;1.13;1.13;;;;;;;;;;5019928;28;20095;-81
2023/12/15 04:40:57;;;;;;;1.95;0.60;;;;;;;;;;5015031;28;20052;-81
2023/12/15 04:43:24;;;;;;;0.90;0.90;;;;;;;;;;5023201;28;20037;-81
2023/12/15 04:45:52;;;;;;;0.55;0.55;;;;;;;;;;5020938;28;20136;-81
2023/12/15 04:48:19;;;;;;;2.22;2.13;;;;;;;;;;5018615;28;20133;-81
2023/12/15 04:50:47;;;;;;;0.68;0.68;;;;;;;;;;5011074;28;20077;-80
2023/12/15 04:53:22;;;;;;;1.48;1.38;;;;;;;;;;5021188;28;20130;-82
2023/12/15 04:55:50;;;;;;;3.30;0.73;;;;;;;;;;5023409;28;20144;-81
2023/12/15 04:58:17;;;;;;;0.35;0.35;;;;;;;;;;5019974;28;20050;-80
2023/12/15 05:00:45;;;;;;;1.20;1.10;;;;;;;;;;5023813;28;20045;-80
2023/12/15 05:03:12;;;;;;;0.95;0.95;;;;;;;;;;5017169;28;20050;-81
2023/12/15 05:05:43;;;;;;;2.22;2.13;;;;;;;;;;5020036;28;20045;-80
2023/12/15 05:08:11;;;;;;;0.73;0.73;;;;;;;;;;5019989;28;20065;-81
2023/12/15 05:10:38;;;;;;;1.67;1.58;;;;;;;;;;5015519;28;20046;-80
2023/12/15 05:13:06;;;;;;;0.22;0.22;;;;;;;;;;5020130;28;20057;-80
2023/12/15 05:15:33;;;;;;;0.00;0.00;;;;;;;;;;5022616;28;20084;-81
2023/12/15 05:18:01;;;;;;;0.30;0.30;;;;;;;;;;5018975;28;20157;-80
2023/12/15 05:20:28;;;;;;;0.65;0.65;;;;;;;;;;5020912;28;20484;-80
2023/12/15 05:22:56;;;;;;;3.22;2.22;;;;;;;;;;5018651;28;20100;-80
2023/12/15 05:25:23;;;;;;;0.98;0.80;;;;;;;;;;5022122;28;20128;-81
2023/12/15 05:27:51;;;;;;;0.35;0.35;;;;;;;;;;5023224;28;20107;-81
2023/12/15 05:30:18;;;;;;;1.45;1.35;;;;;;;;;;5017700;28;20073;-80
2023/12/15 05:32:46;;;;;;;0.10;0.10;;;;;;;;;;5025183;28;20115;-80
2023/12/15 05:35:14;;;;;;;0.10;0.10;;;;;;;;;;5026717;28;20045;-80
2023/12/15 05:37:42;;;;;;;1.55;1.45;;;;;;;;;;5034270;28;20121;-80
2023/12/15 05:40:12;;;;;;;1.23;1.13;;;;;;;;;;5028522;28;20053;-81
2023/12/15 05:42:40;;;;;;;1.02;1.02;;;;;;;;;;5006574;28;20069;-80
2023/12/15 05:45:08;;;;;;;0.10;0.10;;;;;;;;;;5020244;28;20049;-80
2023/12/15 05:47:37;;;;;;;0.95;0.95;;;;;;;;;;5017758;28;20049;-80
2023/12/15 05:50:05;;;;;;;0.28;0.28;;;;;;;;;;5020471;28;20057;-80
2023/12/15 05:52:33;;;;;;;0.17;0.17;;;;;;;;;;5014228;28;20064;-80
2023/12/15 05:55:05;;;;;;;0.43;0.43;;;;;;;;;;5021738;28;20439;-80
2023/12/15 05:57:33;;;;;;;0.30;0.30;;;;;;;;;;5022786;28;20476;-82
2023/12/15 06:00:01;;;;;;;0.88;0.88;;;;;;;;;;5021484;28;20041;-80
2023/12/15 06:02:31;;;;;;;1.00;1.00;;;;;;;;;;5022983;28;20049;-80
2023/12/15 06:04:58;;;;;;;0.10;0.10;;;;;;;;;;5024342;28;20038;-80
2023/12/15 06:07:26;;;;;;;1.25;1.13;;;;;;;;;;5028490;28;20113;-81
2023/12/15 06:09:54;;;;;;;0.10;0.10;;;;;;;;;;5028641;28;20056;-81
2023/12/15 06:12:21;;;;;;;0.20;0.20;;;;;;;;;;5026022;28;20050;-80
2023/12/15 06:14:49;;;;;;;0.15;0.15;;;;;;;;;;5030103;28;20069;-81
2023/12/15 06:17:16;;;;;;;0.80;0.68;;;;;;;;;;5036989;28;20467;-80
2023/12/15 06:19:44;;;;;;;0.40;0.40;;;;;;;;;;5019103;28;20141;-80
2023/12/15 06:22:11;;;;;;;0.40;0.40;;;;;;;;;;5076112;22;20052;-78
2023/12/15 06:24:40;;;;;;;0.95;0.95;;;;;;;;;;5014190;28;20048;-78
2023/12/15 06:27:08;;;;;;;1.13;1.08;;;;;;;;;;4998441;28;20114;-78
2023/12/15 06:29:35;;;;;;;0.10;0.10;;;;;;;;;;5005221;28;20054;-80
2023/12/15 06:32:03;;;;;;;0.20;0.20;;;;;;;;;;5004748;28;20408;-80
2023/12/15 06:34:30;;;;;;;2.30;2.15;;;;;;;;;;5003068;28;20148;-82
2023/12/15 06:36:58;;;;;;;0.70;0.70;;;;;;;;;;4993605;28;20053;-82
2023/12/15 06:39:26;;;;;;;0.98;0.98;;;;;;;;;;5002023;28;20213;-78
2023/12/15 06:41:53;;;;;;;1.45;1.35;;;;;;;;;;5003149;28;20057;-79
2023/12/15 06:44:25;;;;;;;1.17;1.17;;;;;;;;;;5001443;28;20054;-79
2023/12/15 06:46:53;;;;;;;0.50;0.50;;;;;;;;;;5007872;28;20128;-80
2023/12/15 06:49:21;;;;;;;1.13;1.10;;;;;;;;;;5003294;28;20049;-80
2023/12/15 06:51:48;;;;;;;1.75;1.65;;;;;;;;;;4997476;28;20057;-80
2023/12/15 06:54:16;;;;;;;0.38;0.38;;;;;;;;;;4990030;28;20045;-80
2023/12/15 06:56:43;;;;;;;0.68;0.68;;;;;;;;;;4996148;28;20042;-80
2023/12/15 06:59:11;;;;;;;0.50;0.50;;;;;;;;;;4991834;28;20050;-80
2023/12/15 07:01:42;;;;;;;1.00;0.90;;;;;;;;;;4971116;28;20452;-80
2023/12/15 07:04:09;;;;;;;1.58;1.48;;;;;;;;;;5004102;28;20070;-79
2023/12/15 07:06:37;;;;;;;2.08;1.98;;;;;;;;;;4995965;28;20133;-80
2023/12/15 07:09:05;;;;;;;1.60;1.50;;;;;;;;;;5005964;28;20049;-78
2023/12/15 07:11:32;;;;;;;0.77;0.55;;;;;;;;;;5008358;28;20045;-79
2023/12/15 07:14:01;;;;;;;0.35;0.35;;;;;;;;;;5000791;28;20070;-78
2023/12/15 07:16:29;;;;;;;0.32;0.32;;;;;;;;;;5003931;28;20081;-79
2023/12/15 07:18:56;;;;;;;2.85;1.63;;;;;;;;;;5004222;28;20065;-79
2023/12/15 07:21:24;;;;;;;1.80;1.70;;;;;;;;;;5006677;28;20045;-79
2023/12/15 07:23:51;;;;;;;1.55;1.45;;;;;;;;;;5000771;28;20132;-78
2023/12/15 07:26:19;;;;;;;0.73;0.73;;;;;;;;;;4996286;28;20356;-78
2023/12/15 07:28:46;;;;;;;2.58;1.70;;;;;;;;;;5002561;28;20046;-78
2023/12/15 07:31:13;;;;;;;1.75;1.65;;;;;;;;;;5009364;28;20050;-81
2023/12/15 07:33:41;;;;;;;2.03;1.92;;;;;;;;;;5007591;28;20057;-80
2023/12/15 07:36:09;;;;;;;1.98;1.75;;;;;;;;;;4998407;28;20049;-79
2023/12/15 07:38:37;;;;;;;6.15;2.88;;;;;;;;;;5007303;28;20100;-80
2023/12/15 07:41:06;;;;;;;1.38;1.27;;;;;;;;;;5003977;28;20045;-80
2023/12/15 07:43:33;;;;;;;1.08;1.08;;;;;;;;;;5000920;28;20054;-82
2023/12/15 07:46:01;;;;;;;3.17;2.90;;;;;;;;;;5003085;28;20566;-79
2023/12/15 07:48:28;;;;;;;0.40;0.40;;;;;;;;;;4999984;28;20050;-78
2023/12/15 07:50:57;;;;;;;1.58;1.48;;;;;;;;;;4996709;28;20081;-78
2023/12/15 07:53:25;;;;;;;0.85;0.85;;;;;;;;;;5000092;28;20058;-84
2023/12/15 07:55:53;;;;;;;0.10;0.10;;;;;;;;;;4999985;28;20128;-82
2023/12/15 07:58:20;;;;;;;4.68;1.27;;;;;;;;;;5004334;28;20057;-80
2023/12/15 08:00:48;;;;;;;0.63;0.47;;;;;;;;;;5000232;28;20056;-79
2023/12/15 08:03:16;;;;;;;1.48;1.48;;;;;;;;;;5001708;28;20401;-79
2023/12/15 08:05:44;;;;;;;0.70;0.70;;;;;;;;;;4999737;28;20131;-78
2023/12/15 08:08:11;;;;;;;0.50;0.50;;;;;;;;;;5005616;28;20045;-78
2023/12/15 08:10:39;;;;;;;1.35;1.25;;;;;;;;;;5002479;28;20065;-78
2023/12/15 08:13:10;;;;;;;2.63;1.85;;;;;;;;;;5007360;28;20053;-78
2023/12/15 08:15:38;;;;;;;0.35;0.35;;;;;;;;;;5010124;28;20077;-78
2023/12/15 08:18:05;;;;;;;0.88;0.88;;;;;;;;;;5001248;28;20037;-80
2023/12/15 08:20:33;;;;;;;1.08;0.90;;;;;;;;;;5003177;28;20049;-79
2023/12/15 08:23:00;;;;;;;2.72;2.53;;;;;;;;;;4984962;28;20684;-78
2023/12/15 08:25:28;;;;;;;0.65;0.65;;;;;;;;;;4989401;28;20040;-77
2023/12/15 08:27:56;;;;;;;0.73;0.73;;;;;;;;;;5002050;28;20138;-79
2023/12/15 08:30:23;;;;;;;0.43;0.43;;;;;;;;;;5002770;28;20507;-78
2023/12/15 08:32:51;;;;;;;0.65;0.57;;;;;;;;;;4986838;28;20062;-80
2023/12/15 08:35:18;;;;;;;1.27;1.15;;;;;;;;;;5011323;28;20649;-78
2023/12/15 08:37:46;;;;;;;0.82;0.82;;;;;;;;;;5003282;28;20077;-78
2023/12/15 08:40:13;;;;;;;0.95;0.95;;;;;;;;;;5007879;28;20069;-79
2023/12/15 08:42:41;;;;;;;0.65;0.65;;;;;;;;;;5008660;28;20050;-79
2023/12/15 08:45:09;;;;;;;0.10;0.10;;;;;;;;;;5005976;28;20050;-78
2023/12/15 08:47:37;;;;;;;0.40;0.40;;;;;;;;;;5004648;28;20564;-78
2023/12/15 08:50:06;;;;;;;0.30;0.30;;;;;;;;;;4996999;28;20038;-77
2023/12/15 08:52:33;;;;;;;1.55;1.45;;;;;;;;;;5004997;28;20061;-78
2023/12/15 08:55:01;;;;;;;1.63;1.52;;;;;;;;;;4998551;28;20058;-79
2023/12/15 08:57:29;;;;;;;0.80;0.80;;;;;;;;;;5006437;28;20053;-79
2023/12/15 08:59:56;;;;;;;1.38;1.27;;;;;;;;;;5007048;28;20111;-80
2023/12/15 09:02:24;;;;;;;0.25;0.25;;;;;;;;;;5005542;28;20587;-82
2023/12/15 09:04:51;;;;;;;0.35;0.35;;;;;;;;;;5002507;28;20046;-79
2023/12/15 09:07:30;;;;;;;0.80;0.80;;;;;;;;;;5007021;28;20046;-79
2023/12/15 09:09:57;;;;;;;1.10;1.00;;;;;;;;;;4998413;28;20073;-78
2023/12/15 09:12:25;;;;;;;1.70;1.60;;;;;;;;;;4997701;28;20145;-77
2023/12/15 09:14:53;;;;;;;1.30;1.17;;;;;;;;;;5005897;28;20048;-77
2023/12/15 09:17:21;;;;;;;1.05;1.05;;;;;;;;;;4993314;28;20176;-79
2023/12/15 09:19:49;;;;;;;7.05;3.03;;;;;;;;;;4999355;28;20042;-79
2023/12/15 09:22:16;;;;;;;1.38;1.27;;;;;;;;;;5002973;28;20133;-77
2023/12/15 09:24:44;;;;;;;0.95;0.95;;;;;;;;;;5002274;28;20105;-78
2023/12/15 09:27:11;;;;;;;0.38;0.38;;;;;;;;;;5004750;28;20416;-79
2023/12/15 09:29:39;;;;;;;0.85;0.85;;;;;;;;;;5003565;28;20073;-77
2023/12/15 09:32:08;;;;;;;0.25;0.25;;;;;;;;;;4998079;28;20456;-77
2023/12/15 09:34:35;;;;;;;0.10;0.10;;;;;;;;;;5000936;28;20061;-78
2023/12/15 09:37:03;;;;;;;5.22;2.47;;;;;;;;;;5000079;28;20049;-78
2023/12/15 09:39:31;;;;;;;1.27;1.17;;;;;;;;;;4998482;28;20070;-77
2023/12/15 09:41:58;;;;;;;2.53;1.75;;;;;;;;;;4994219;28;20571;-81
2023/12/15 09:44:26;;;;;;;8.50;3.42;;;;;;;;;;5000814;28;20559;-78
2023/12/15 09:46:53;;;;;;;8.98;2.20;;;;;;;;;;4996908;28;20458;-78
2023/12/15 09:49:22;;;;;;;0.82;0.82;;;;;;;;;;5002235;28;20114;-82
2023/12/15 09:51:50;;;;;;;1.10;1.10;;;;;;;;;;5000663;28;20049;-85
2023/12/15 09:54:17;;;;;;;0.50;0.47;;;;;;;;;;5001642;28;20042;-81
2023/12/15 09:56:46;;;;;;;0.40;0.40;;;;;;;;;;4998746;28;20176;-80
2023/12/15 09:59:14;;;;;;;1.85;1.45;;;;;;;;;;5000620;28;20056;-80
2023/12/15 10:01:42;;;;;;;0.20;0.20;;;;;;;;;;4995622;28;20049;-78
2023/12/15 10:04:09;;;;;;;0.95;0.85;;;;;;;;;;4997787;28;20082;-78
2023/12/15 10:06:37;;;;;;;0.63;0.47;;;;;;;;;;4998597;28;20039;-80
2023/12/15 10:09:13;;;;;;;1.05;1.05;;;;;;;;;;4999244;28;20148;-82
2023/12/15 10:11:41;;;;;;;1.33;1.23;;;;;;;;;;5006146;28;20074;-78
2023/12/15 10:14:09;;;;;;;0.50;0.50;;;;;;;;;;4994567;28;20057;-83
2023/12/15 10:16:38;;;;;;;1.13;1.08;;;;;;;;;;5004000;28;20057;-78
2023/12/15 10:19:06;;;;;;;1.77;1.67;;;;;;;;;;5005816;28;20052;-81
2023/12/15 10:21:34;;;;;;;0.17;0.17;;;;;;;;;;4999484;28;20133;-82
2023/12/15 10:24:21;;;;;;;0.65;0.65;;;;;;;;;;4981384;28;20097;-79
2023/12/15 10:26:49;;;;;;;0.28;0.28;;;;;;;;;;5003563;28;20132;-79
2023/12/15 10:29:20;;;;;;;0.57;0.57;;;;;;;;;;5010087;28;20136;-77
2023/12/15 10:31:50;;;;;;;1.57;1.47;;;;;;;;;;5003894;28;20053;-80
2023/12/15 10:34:22;;;;;;;0.13;0.13;;;;;;;;;;4999773;28;20308;-81
2023/12/15 10:36:49;;;;;;;0.55;0.55;;;;;;;;;;5000358;28;20045;-80
2023/12/15 10:39:19;;;;;;;1.10;1.10;;;;;;;;;;5000622;28;20113;-78
2023/12/15 10:41:47;;;;;;;1.83;1.73;;;;;;;;;;4985694;28;20052;-76
2023/12/15 10:44:15;;;;;;;0.63;0.63;;;;;;;;;;4995022;28;20041;-79
2023/12/15 10:46:43;;;;;;;3.00;2.70;;;;;;;;;;5001725;28;20057;-81
2023/12/15 10:49:11;;;;;;;0.13;0.13;;;;;;;;;;5000368;28;20678;-83
2023/12/15 10:51:43;;;;;;;1.88;0.90;;;;;;;;;;4992110;28;20045;-78
2023/12/15 10:54:18;;;;;;;1.35;1.27;;;;;;;;;;4997154;28;20050;-82
2023/12/15 10:56:47;;;;;;;;;;;;;;;;;;4994761;28;20050;-79
2023/12/15 10:59:15;;;;;;;2.95;1.52;;;;;;;;;;5002824;28;19928;-79
2023/12/15 11:01:43;;;;;;;0.82;0.82;;;;;;;;;;4992473;28;20142;-79
2023/12/15 11:04:37;;;;;;;2.30;1.60;;;;;;;;;;4997194;28;20099;-79
2023/12/15 11:07:04;;;;;;;0.95;0.93;;;;;;;;;;4994973;28;20471;-79
2023/12/15 11:09:35;;;;;;;0.40;0.40;;;;;;;;;;4997778;28;20292;-79
2023/12/15 11:12:22;;;;;;;0.50;0.50;;;;;;;;;;5004755;28;20113;-78
2023/12/15 11:15:02;;;;;;;0.85;0.85;;;;;;;;;;5002073;28;20057;-79
2023/12/15 11:17:31;;;;;;;2.03;1.85;;;;;;;;;;4998080;28;20050;-77
2023/12/15 11:20:07;;;;;;;0.35;0.35;;;;;;;;;;4994530;28;20148;-77
2023/12/15 11:22:41;;;;;;;0.55;0.55;;;;;;;;;;5003567;28;20494;-82
2023/12/15 11:25:18;;;;;;;0.20;0.20;;;;;;;;;;5001461;28;20198;-76
2023/12/15 11:28:02;;;;;;;2.33;1.83;;;;;;;;;;5000682;28;20064;-80
2023/12/15 11:30:44;;;;;;;6.35;2.33;;;;;;;;;;4990478;28;20057;-77
2023/12/15 11:33:26;;;;;;;0.38;0.38;;;;;;;;;;4996086;28;20268;-78
2023/12/15 11:35:55;;;;;;;0.50;0.50;;;;;;;;;;4995955;28;20054;-79
2023/12/15 11:38:23;;;;;;;3.83;1.67;;;;;;;;;;4994840;28;20057;-77
2023/12/15 11:40:51;;;;;;;1.20;1.20;;;;;;;;;;4999952;28;20045;-77
2023/12/15 11:43:18;;;;;;;1.98;1.77;;;;;;;;;;5005088;28;20065;-76
2023/12/15 11:45:50;;;;;;;0.30;0.30;;;;;;;;;;5011334;28;20041;-78
2023/12/15 11:48:18;;;;;;;0.77;0.73;;;;;;;;;;5003058;28;20121;-80
2023/12/15 11:50:47;;;;;;;0.30;0.30;;;;;;;;;;4996422;28;26985;-78
2023/12/15 11:53:18;;;;;;;1.65;1.55;;;;;;;;;;5001087;28;20054;-78
2023/12/15 11:55:46;;;;;;;4.07;3.08;;;;;;;;;;5007739;28;20478;-79
2023/12/15 11:58:18;;;;;;;1.10;1.02;;;;;;;;;;4999352;28;20061;-82
2023/12/15 12:00:47;;;;;;;1.08;1.08;;;;;;;;;;5009826;28;20054;-80
2023/12/15 12:03:16;;;;;;;10.75;0.52;;;;;;;;;;5000093;28;20038;-78
2023/12/15 12:05:48;;;;;;;3.92;0.73;;;;;;;;;;5001204;28;20802;-78
2023/12/15 12:08:17;;;;;;;1.05;0.95;;;;;;;;;;5002437;28;20050;-79
2023/12/15 12:10:44;;;;;;;1.10;0.63;;;;;;;;;;5001084;28;20052;-80
2023/12/15 12:13:14;;;;;;;1.92;1.83;;;;;;;;;;4999927;28;20061;-84
2023/12/15 12:15:51;;;;;;;0.30;0.30;;;;;;;;;;4999634;28;20046;-80
2023/12/15 12:18:24;;;;;;;1.15;1.08;;;;;;;;;;4998831;28;20137;-79
2023/12/15 12:21:03;;;;;;;2.83;1.00;;;;;;;;;;5002229;28;20073;-79
2023/12/15 12:23:31;;;;;;;0.75;0.75;;;;;;;;;;5006008;28;20042;-80
2023/12/15 12:26:11;;;;;;;0.20;0.20;;;;;;;;;;4996028;28;20048;-80
2023/12/15 12:28:41;;;;;;;0.50;0.50;;;;;;;;;;4999750;28;20058;-79
2023/12/15 12:31:14;;;;;;;0.13;0.13;;;;;;;;;;5003316;28;20073;-82
2023/12/15 12:33:50;;;;;;;0.10;0.10;;;;;;;;;;4995465;28;20050;-79
2023/12/15 12:36:20;;;;;;;0.68;0.65;;;;;;;;;;4998568;28;20073;-79
2023/12/15 12:38:48;;;;;;;0.98;0.73;;;;;;;;;;4999332;28;20062;-77
2023/12/15 12:41:16;;;;;;;0.38;0.38;;;;;;;;;;4999987;28;20133;-79
2023/12/15 12:43:44;;;;;;;1.95;0.63;;;;;;;;;;5010343;28;20061;-79
2023/12/15 12:46:12;;;;;;;5.15;3.17;;;;;;;;;;4998395;28;20049;-81
2023/12/15 12:48:43;;;;;;;0.20;0.20;;;;;;;;;;5000579;28;20045;-80
2023/12/15 12:51:11;;;;;;;0.15;0.15;;;;;;;;;;4991078;28;20512;-82
2023/12/15 12:53:40;;;;;;;0.30;0.30;;;;;;;;;;4997840;28;20050;-79
2023/12/15 12:56:10;;;;;;;0.10;0.10;;;;;;;;;;4998297;28;20513;-78
2023/12/15 12:58:39;;;;;;;0.25;0.25;;;;;;;;;;4997859;28;20363;-79
2023/12/15 13:01:06;;;;;;;0.40;0.40;;;;;;;;;;5001382;28;20185;-79
2023/12/15 13:03:34;;;;;;;0.20;0.20;;;;;;;;;;5007378;28;20076;-79
2023/12/15 13:06:02;;;;;;;0.43;0.43;;;;;;;;;;4999149;28;20089;-77
2023/12/15 13:08:30;;;;;;;0.45;0.45;;;;;;;;;;4998595;28;20501;-80
2023/12/15 13:10:58;;;;;;;0.80;0.80;;;;;;;;;;5000203;28;20045;-78
2023/12/15 13:13:26;;;;;;;0.38;0.38;;;;;;;;;;5001618;28;20100;-80
2023/12/15 13:15:54;;;;;;;0.63;0.63;;;;;;;;;;4998734;28;21629;-81
2023/12/15 13:18:21;;;;;;;0.20;0.20;;;;;;;;;;4994700;28;20042;-80
2023/12/15 13:20:49;;;;;;;0.10;0.10;;;;;;;;;;5002779;28;20069;-80
2023/12/15 13:23:17;;;;;;;0.00;0.00;;;;;;;;;;5005162;28;20062;-80
2023/12/15 13:25:44;;;;;;;0.40;0.40;;;;;;;;;;4999350;28;20053;-79
2023/12/15 13:28:14;;;;;;;0.40;0.40;;;;;;;;;;5001567;28;20475;-79
2023/12/15 13:30:43;;;;;;;1.48;1.38;;;;;;;;;;5002201;28;20050;-78
2023/12/15 13:33:11;;;;;;;0.75;0.75;;;;;;;;;;4995507;28;20057;-79
2023/12/15 13:35:41;;;;;;;1.85;0.55;;;;;;;;;;5003608;28;20294;-80
2023/12/15 13:38:40;;;;;;;1.27;1.27;;;;;;;;;;4992230;28;20408;-78
2023/12/15 13:41:07;;;;;;;3.15;2.85;;;;;;;;;;4985732;28;20080;-79
2023/12/15 13:43:37;;;;;;;0.10;0.10;;;;;;;;;;5008398;28;20037;-79
2023/12/15 13:46:04;;;;;;;0.30;0.30;;;;;;;;;;5005678;28;20038;-80
2023/12/15 13:48:36;;;;;;;;;;;;;;;;;;5012569;28;20038;-80
2023/12/15 13:51:04;;;;;;;0.25;0.25;;;;;;;;;;5006068;28;20041;-80
2023/12/15 13:53:40;;;;;;;0.57;0.57;;;;;;;;;;5002202;28;20057;-78
2023/12/15 13:56:08;;;;;;;0.22;0.22;;;;;;;;;;5003167;28;20060;-79
2023/12/15 13:58:35;;;;;;;0.20;0.20;;;;;;;;;;5004854;28;20109;-78
2023/12/15 14:01:03;;;;;;;0.88;0.25;;;;;;;;;;5003098;28;20052;-80
2023/12/15 14:03:31;;;;;;;0.77;0.77;;;;;;;;;;5008396;28;20050;-79
2023/12/15 14:06:04;;;;;;;0.30;0.30;;;;;;;;;;5042805;22;20059;-85
2023/12/15 14:08:31;;;;;;;0.10;0.10;;;;;;;;;;5045660;28;20048;-85
2023/12/15 14:11:01;;;;;;;0.40;0.40;;;;;;;;;;5057714;28;20096;-84
2023/12/15 14:13:32;;;;;;;2.80;2.38;;;;;;;;;;5053545;28;20049;-82
2023/12/15 14:16:00;;;;;;;0.30;0.30;;;;;;;;;;5047674;28;20537;-85
2023/12/15 14:18:39;;;;;;;0.17;0.17;;;;;;;;;;5048801;28;20041;-84
2023/12/15 14:21:15;;;;;;;0.57;0.57;;;;;;;;;;5039428;28;20061;-84
2023/12/15 14:24:02;;;;;;;0.68;0.68;;;;;;;;;;5041543;28;20158;-85
2023/12/15 14:26:38;;;;;;;0.30;0.30;;;;;;;;;;5045556;28;20057;-84
2023/12/15 14:29:09;;;;;;;0.22;0.22;;;;;;;;;;5056074;28;20109;-83
2023/12/15 14:31:38;;;;;;;0.20;0.20;;;;;;;;;;5048941;28;20105;-82
2023/12/15 14:34:08;;;;;;;0.30;0.30;;;;;;;;;;5042892;28;20064;-84
2023/12/15 14:36:37;;;;;;;1.65;1.55;;;;;;;;;;5052310;28;20091;-83
2023/12/15 14:39:21;;;;;;;0.13;0.13;;;;;;;;;;5053341;28;20262;-85
2023/12/15 14:42:01;;;;;;;1.92;1.83;;;;;;;;;;5049914;28;20052;-84
2023/12/15 14:44:44;;;;;;;0.52;0.35;;;;;;;;;;5040267;28;20037;-84
2023/12/15 14:47:21;;;;;;;0.10;0.10;;;;;;;;;;5041192;28;20124;-85
2023/12/15 14:49:49;;;;;;;0.15;0.15;;;;;;;;;;5065136;28;20104;-83
2023/12/15 14:52:17;;;;;;;1.90;1.48;;;;;;;;;;5041552;28;20117;-84